sensor_id;sensor_type;location;lat;lon;timestamp;P1;durP1;ratioP1;P2;durP2;ratioP2
74674;SDS011;63200;48.810;12.352;2023-04-03T00:01:28;2.03;;;1.95;;
74674;SDS011;63200;48.810;12.352;2023-04-03T00:03:53;2.17;;;2.08;;
74674;SDS011;63200;48.810;12.352;2023-04-03T00:06:19;2.30;;;2.10;;
74674;SDS011;63200;48.810;12.352;2023-04-03T00:08:45;2.60;;;2.40;;
74674;SDS011;63200;48.810;12.352;2023-04-03T00:11:10;3.10;;;2.15;;
74674;SDS011;63200;48.810;12.352;2023-04-03T00:13:36;2.25;;;2.15;;
74674;SDS011;63200;48.810;12.352;2023-04-03T00:16:02;2.40;;;2.30;;
74674;SDS011;63200;48.810;12.352;2023-04-03T00:18:28;2.95;;;2.20;;
74674;SDS011;63200;48.810;12.352;2023-04-03T00:20:54;2.58;;;2.10;;
74674;SDS011;63200;48.810;12.352;2023-04-03T00:23:19;2.72;;;2.42;;
74674;SDS011;63200;48.810;12.352;2023-04-03T00:25:45;3.33;;;2.20;;
74674;SDS011;63200;48.810;12.352;2023-04-03T00:28:10;2.20;;;2.00;;
74674;SDS011;63200;48.810;12.352;2023-04-03T00:30:35;2.55;;;2.30;;
74674;SDS011;63200;48.810;12.352;2023-04-03T00:33:01;2.30;;;2.10;;
74674;SDS011;63200;48.810;12.352;2023-04-03T00:35:27;2.17;;;2.00;;
74674;SDS011;63200;48.810;12.352;2023-04-03T00:37:54;2.40;;;2.20;;
74674;SDS011;63200;48.810;12.352;2023-04-03T00:40:21;3.22;;;2.75;;
74674;SDS011;63200;48.810;12.352;2023-04-03T00:42:51;5.13;;;2.63;;
74674;SDS011;63200;48.810;12.352;2023-04-03T00:45:25;4.50;;;2.65;;
74674;SDS011;63200;48.810;12.352;2023-04-03T00:47:56;2.50;;;2.38;;
74674;SDS011;63200;48.810;12.352;2023-04-03T00:50:24;2.22;;;2.13;;
74674;SDS011;63200;48.810;12.352;2023-04-03T00:52:51;2.55;;;2.40;;
74674;SDS011;63200;48.810;12.352;2023-04-03T00:55:16;2.83;;;2.40;;
74674;SDS011;63200;48.810;12.352;2023-04-03T00:57:42;2.28;;;2.17;;
74674;SDS011;63200;48.810;12.352;2023-04-03T01:00:09;6.00;;;2.40;;
74674;SDS011;63200;48.810;12.352;2023-04-03T01:02:37;3.28;;;2.42;;
74674;SDS011;63200;48.810;12.352;2023-04-03T01:05:06;3.20;;;2.60;;
74674;SDS011;63200;48.810;12.352;2023-04-03T01:07:31;2.67;;;2.47;;
74674;SDS011;63200;48.810;12.352;2023-04-03T01:10:00;3.65;;;2.30;;
74674;SDS011;63200;48.810;12.352;2023-04-03T01:12:31;2.90;;;2.67;;
74674;SDS011;63200;48.810;12.352;2023-04-03T01:14:59;4.20;;;2.83;;
74674;SDS011;63200;48.810;12.352;2023-04-03T01:17:29;2.65;;;2.45;;
74674;SDS011;63200;48.810;12.352;2023-04-03T01:25:35;2.78;;;2.58;;
74674;SDS011;63200;48.810;12.352;2023-04-03T01:28:02;4.10;;;2.70;;
74674;SDS011;63200;48.810;12.352;2023-04-03T01:30:30;3.15;;;2.72;;
74674;SDS011;63200;48.810;12.352;2023-04-03T01:33:00;4.00;;;3.08;;
74674;SDS011;63200;48.810;12.352;2023-04-03T01:35:25;2.92;;;2.63;;
74674;SDS011;63200;48.810;12.352;2023-04-03T01:37:51;4.35;;;2.67;;
74674;SDS011;63200;48.810;12.352;2023-04-03T01:40:16;3.78;;;2.55;;
74674;SDS011;63200;48.810;12.352;2023-04-03T01:42:42;6.10;;;3.05;;
74674;SDS011;63200;48.810;12.352;2023-04-03T01:45:07;5.90;;;2.80;;
74674;SDS011;63200;48.810;12.352;2023-04-03T01:47:33;3.58;;;3.28;;
74674;SDS011;63200;48.810;12.352;2023-04-03T01:49:58;3.83;;;3.08;;
74674;SDS011;63200;48.810;12.352;2023-04-03T01:52:24;3.38;;;2.85;;
74674;SDS011;63200;48.810;12.352;2023-04-03T01:54:49;6.72;;;2.97;;
74674;SDS011;63200;48.810;12.352;2023-04-03T01:57:15;7.70;;;2.83;;
74674;SDS011;63200;48.810;12.352;2023-04-03T01:59:41;3.40;;;3.10;;
74674;SDS011;63200;48.810;12.352;2023-04-03T02:02:06;3.13;;;2.92;;
74674;SDS011;63200;48.810;12.352;2023-04-03T02:04:32;2.85;;;2.65;;
74674;SDS011;63200;48.810;12.352;2023-04-03T02:06:57;3.88;;;3.17;;
74674;SDS011;63200;48.810;12.352;2023-04-03T02:09:23;2.97;;;2.78;;
74674;SDS011;63200;48.810;12.352;2023-04-03T02:11:48;6.03;;;2.90;;
74674;SDS011;63200;48.810;12.352;2023-04-03T02:14:13;4.85;;;3.00;;
74674;SDS011;63200;48.810;12.352;2023-04-03T02:16:39;4.05;;;2.90;;
74674;SDS011;63200;48.810;12.352;2023-04-03T02:19:04;3.85;;;2.60;;
74674;SDS011;63200;48.810;12.352;2023-04-03T02:21:30;3.08;;;2.72;;
74674;SDS011;63200;48.810;12.352;2023-04-03T02:23:55;3.00;;;2.70;;
74674;SDS011;63200;48.810;12.352;2023-04-03T02:26:21;2.92;;;2.60;;
74674;SDS011;63200;48.810;12.352;2023-04-03T02:28:47;3.42;;;3.13;;
74674;SDS011;63200;48.810;12.352;2023-04-03T02:31:12;2.80;;;2.53;;
74674;SDS011;63200;48.810;12.352;2023-04-03T02:33:37;3.17;;;2.85;;
74674;SDS011;63200;48.810;12.352;2023-04-03T02:36:04;3.30;;;3.00;;
74674;SDS011;63200;48.810;12.352;2023-04-03T02:38:30;3.47;;;2.90;;
74674;SDS011;63200;48.810;12.352;2023-04-03T02:41:02;3.38;;;2.88;;
74674;SDS011;63200;48.810;12.352;2023-04-03T02:43:30;5.15;;;3.03;;
74674;SDS011;63200;48.810;12.352;2023-04-03T02:45:55;3.17;;;2.97;;
74674;SDS011;63200;48.810;12.352;2023-04-03T02:48:20;4.45;;;2.90;;
74674;SDS011;63200;48.810;12.352;2023-04-03T02:50:46;5.03;;;3.10;;
74674;SDS011;63200;48.810;12.352;2023-04-03T02:53:11;3.15;;;2.95;;
74674;SDS011;63200;48.810;12.352;2023-04-03T02:55:37;5.28;;;2.95;;
74674;SDS011;63200;48.810;12.352;2023-04-03T02:58:02;3.20;;;2.92;;
74674;SDS011;63200;48.810;12.352;2023-04-03T03:00:28;4.70;;;3.17;;
74674;SDS011;63200;48.810;12.352;2023-04-03T03:02:54;3.45;;;3.15;;
74674;SDS011;63200;48.810;12.352;2023-04-03T03:05:19;7.90;;;3.20;;
74674;SDS011;63200;48.810;12.352;2023-04-03T03:07:45;4.13;;;3.08;;
74674;SDS011;63200;48.810;12.352;2023-04-03T03:10:10;3.53;;;3.17;;
74674;SDS011;63200;48.810;12.352;2023-04-03T03:12:36;4.43;;;3.30;;
74674;SDS011;63200;48.810;12.352;2023-04-03T03:15:01;3.20;;;3.00;;
74674;SDS011;63200;48.810;12.352;2023-04-03T03:17:26;5.22;;;3.38;;
74674;SDS011;63200;48.810;12.352;2023-04-03T03:19:51;3.60;;;3.00;;
74674;SDS011;63200;48.810;12.352;2023-04-03T03:22:17;4.18;;;3.55;;
74674;SDS011;63200;48.810;12.352;2023-04-03T03:24:42;4.88;;;3.00;;
74674;SDS011;63200;48.810;12.352;2023-04-03T03:27:07;4.57;;;3.50;;
74674;SDS011;63200;48.810;12.352;2023-04-03T03:29:33;5.32;;;3.33;;
74674;SDS011;63200;48.810;12.352;2023-04-03T03:31:58;3.20;;;3.00;;
74674;SDS011;63200;48.810;12.352;2023-04-03T03:34:23;3.53;;;3.08;;
74674;SDS011;63200;48.810;12.352;2023-04-03T03:36:49;3.30;;;3.10;;
74674;SDS011;63200;48.810;12.352;2023-04-03T03:39:14;6.28;;;3.50;;
74674;SDS011;63200;48.810;12.352;2023-04-03T03:41:40;5.00;;;3.70;;
74674;SDS011;63200;48.810;12.352;2023-04-03T03:44:05;7.30;;;3.53;;
74674;SDS011;63200;48.810;12.352;2023-04-03T03:46:30;3.80;;;3.47;;
74674;SDS011;63200;48.810;12.352;2023-04-03T03:48:56;5.57;;;3.97;;
74674;SDS011;63200;48.810;12.352;2023-04-03T03:51:21;11.20;;;4.55;;
74674;SDS011;63200;48.810;12.352;2023-04-03T03:53:46;6.47;;;4.40;;
74674;SDS011;63200;48.810;12.352;2023-04-03T03:56:11;5.50;;;3.88;;
74674;SDS011;63200;48.810;12.352;2023-04-03T03:58:37;8.10;;;4.25;;
74674;SDS011;63200;48.810;12.352;2023-04-03T04:01:03;6.20;;;4.30;;
74674;SDS011;63200;48.810;12.352;2023-04-03T04:03:30;4.75;;;4.00;;
74674;SDS011;63200;48.810;12.352;2023-04-03T04:05:55;6.90;;;4.55;;
74674;SDS011;63200;48.810;12.352;2023-04-03T04:08:21;6.57;;;4.47;;
74674;SDS011;63200;48.810;12.352;2023-04-03T04:10:46;7.20;;;3.90;;
74674;SDS011;63200;48.810;12.352;2023-04-03T04:13:11;6.85;;;4.47;;
74674;SDS011;63200;48.810;12.352;2023-04-03T04:15:37;6.82;;;4.72;;
74674;SDS011;63200;48.810;12.352;2023-04-03T04:18:02;8.93;;;4.72;;
74674;SDS011;63200;48.810;12.352;2023-04-03T04:20:28;7.93;;;4.82;;
74674;SDS011;63200;48.810;12.352;2023-04-03T04:22:53;7.72;;;5.22;;
74674;SDS011;63200;48.810;12.352;2023-04-03T04:25:19;8.63;;;5.43;;
74674;SDS011;63200;48.810;12.352;2023-04-03T04:27:44;8.25;;;4.82;;
74674;SDS011;63200;48.810;12.352;2023-04-03T04:30:09;10.57;;;4.40;;
74674;SDS011;63200;48.810;12.352;2023-04-03T04:32:35;9.52;;;5.05;;
74674;SDS011;63200;48.810;12.352;2023-04-03T04:35:01;8.63;;;4.72;;
74674;SDS011;63200;48.810;12.352;2023-04-03T04:37:26;5.80;;;4.68;;
74674;SDS011;63200;48.810;12.352;2023-04-03T04:39:52;6.72;;;5.05;;
74674;SDS011;63200;48.810;12.352;2023-04-03T04:42:17;6.43;;;4.63;;
74674;SDS011;63200;48.810;12.352;2023-04-03T04:44:43;6.75;;;4.65;;
74674;SDS011;63200;48.810;12.352;2023-04-03T04:47:08;8.98;;;4.78;;
74674;SDS011;63200;48.810;12.352;2023-04-03T04:49:33;8.88;;;4.80;;
74674;SDS011;63200;48.810;12.352;2023-04-03T04:51:59;7.82;;;4.88;;
74674;SDS011;63200;48.810;12.352;2023-04-03T04:54:24;10.55;;;4.93;;
74674;SDS011;63200;48.810;12.352;2023-04-03T04:56:49;8.07;;;4.93;;
74674;SDS011;63200;48.810;12.352;2023-04-03T04:59:15;9.20;;;5.03;;
74674;SDS011;63200;48.810;12.352;2023-04-03T05:01:40;12.57;;;5.07;;
74674;SDS011;63200;48.810;12.352;2023-04-03T05:04:05;7.93;;;5.03;;
74674;SDS011;63200;48.810;12.352;2023-04-03T05:06:31;6.80;;;4.55;;
74674;SDS011;63200;48.810;12.352;2023-04-03T05:08:57;8.88;;;4.63;;
74674;SDS011;63200;48.810;12.352;2023-04-03T05:11:23;8.43;;;4.43;;
74674;SDS011;63200;48.810;12.352;2023-04-03T05:13:49;5.93;;;3.90;;
74674;SDS011;63200;48.810;12.352;2023-04-03T05:16:14;6.35;;;4.18;;
74674;SDS011;63200;48.810;12.352;2023-04-03T05:18:40;6.25;;;4.53;;
74674;SDS011;63200;48.810;12.352;2023-04-03T05:21:05;5.60;;;4.00;;
74674;SDS011;63200;48.810;12.352;2023-04-03T05:23:30;7.38;;;4.10;;
74674;SDS011;63200;48.810;12.352;2023-04-03T05:25:56;8.77;;;4.55;;
74674;SDS011;63200;48.810;12.352;2023-04-03T05:28:22;5.03;;;4.53;;
74674;SDS011;63200;48.810;12.352;2023-04-03T05:30:56;5.22;;;4.28;;
74674;SDS011;63200;48.810;12.352;2023-04-03T05:33:22;4.50;;;4.10;;
74674;SDS011;63200;48.810;12.352;2023-04-03T05:35:48;7.10;;;4.30;;
74674;SDS011;63200;48.810;12.352;2023-04-03T05:38:13;7.50;;;4.20;;
74674;SDS011;63200;48.810;12.352;2023-04-03T05:40:39;6.93;;;4.25;;
74674;SDS011;63200;48.810;12.352;2023-04-03T05:43:05;6.05;;;3.92;;
74674;SDS011;63200;48.810;12.352;2023-04-03T05:45:30;5.95;;;4.28;;
74674;SDS011;63200;48.810;12.352;2023-04-03T05:47:55;7.40;;;3.85;;
74674;SDS011;63200;48.810;12.352;2023-04-03T05:50:21;7.45;;;4.10;;
74674;SDS011;63200;48.810;12.352;2023-04-03T05:52:46;6.72;;;4.15;;
74674;SDS011;63200;48.810;12.352;2023-04-03T05:55:14;6.68;;;4.78;;
74674;SDS011;63200;48.810;12.352;2023-04-03T05:57:40;8.15;;;4.80;;
74674;SDS011;63200;48.810;12.352;2023-04-03T06:00:06;8.98;;;5.10;;
74674;SDS011;63200;48.810;12.352;2023-04-03T06:02:34;8.43;;;5.18;;
74674;SDS011;63200;48.810;12.352;2023-04-03T06:05:00;7.07;;;4.63;;
74674;SDS011;63200;48.810;12.352;2023-04-03T06:07:26;11.20;;;5.20;;
74674;SDS011;63200;48.810;12.352;2023-04-03T06:09:53;7.40;;;4.60;;
74674;SDS011;63200;48.810;12.352;2023-04-03T06:12:20;5.70;;;4.30;;
74674;SDS011;63200;48.810;12.352;2023-04-03T06:14:46;5.95;;;4.32;;
74674;SDS011;63200;48.810;12.352;2023-04-03T06:17:12;7.40;;;4.65;;
74674;SDS011;63200;48.810;12.352;2023-04-03T06:19:38;6.82;;;5.03;;
74674;SDS011;63200;48.810;12.352;2023-04-03T06:22:04;5.72;;;3.90;;
74674;SDS011;63200;48.810;12.352;2023-04-03T06:24:29;7.57;;;4.32;;
74674;SDS011;63200;48.810;12.352;2023-04-03T06:26:55;6.95;;;3.55;;
74674;SDS011;63200;48.810;12.352;2023-04-03T06:29:21;5.88;;;3.92;;
74674;SDS011;63200;48.810;12.352;2023-04-03T06:31:47;5.65;;;3.15;;
74674;SDS011;63200;48.810;12.352;2023-04-03T06:34:13;6.22;;;4.10;;
74674;SDS011;63200;48.810;12.352;2023-04-03T06:36:39;5.13;;;3.53;;
74674;SDS011;63200;48.810;12.352;2023-04-03T06:39:05;5.70;;;4.03;;
74674;SDS011;63200;48.810;12.352;2023-04-03T06:41:31;5.93;;;3.28;;
74674;SDS011;63200;48.810;12.352;2023-04-03T06:43:57;7.80;;;3.55;;
74674;SDS011;63200;48.810;12.352;2023-04-03T06:46:23;4.70;;;2.85;;
74674;SDS011;63200;48.810;12.352;2023-04-03T06:48:51;2.83;;;2.63;;
74674;SDS011;63200;48.810;12.352;2023-04-03T06:51:20;5.97;;;2.70;;
74674;SDS011;63200;48.810;12.352;2023-04-03T06:53:48;3.92;;;3.38;;
74674;SDS011;63200;48.810;12.352;2023-04-03T06:56:14;4.75;;;3.42;;
74674;SDS011;63200;48.810;12.352;2023-04-03T06:58:40;13.55;;;4.78;;
74674;SDS011;63200;48.810;12.352;2023-04-03T07:01:06;13.43;;;7.07;;
74674;SDS011;63200;48.810;12.352;2023-04-03T07:03:32;7.25;;;4.80;;
74674;SDS011;63200;48.810;12.352;2023-04-03T07:05:57;6.47;;;3.70;;
74674;SDS011;63200;48.810;12.352;2023-04-03T07:08:22;5.85;;;3.03;;
74674;SDS011;63200;48.810;12.352;2023-04-03T07:10:48;8.45;;;3.42;;
74674;SDS011;63200;48.810;12.352;2023-04-03T07:13:14;6.25;;;2.30;;
74674;SDS011;63200;48.810;12.352;2023-04-03T07:15:40;6.57;;;2.58;;
74674;SDS011;63200;48.810;12.352;2023-04-03T07:18:05;5.32;;;2.88;;
74674;SDS011;63200;48.810;12.352;2023-04-03T07:20:31;3.67;;;2.85;;
74674;SDS011;63200;48.810;12.352;2023-04-03T07:22:56;2.97;;;2.05;;
74674;SDS011;63200;48.810;12.352;2023-04-03T07:25:22;9.88;;;2.97;;
74674;SDS011;63200;48.810;12.352;2023-04-03T07:27:47;7.13;;;2.53;;
74674;SDS011;63200;48.810;12.352;2023-04-03T07:30:14;4.28;;;2.40;;
74674;SDS011;63200;48.810;12.352;2023-04-03T07:32:39;3.90;;;2.72;;
74674;SDS011;63200;48.810;12.352;2023-04-03T07:35:05;3.22;;;2.00;;
74674;SDS011;63200;48.810;12.352;2023-04-03T07:37:31;7.00;;;2.92;;
74674;SDS011;63200;48.810;12.352;2023-04-03T07:39:57;2.22;;;2.03;;
74674;SDS011;63200;48.810;12.352;2023-04-03T07:42:24;5.65;;;3.40;;
74674;SDS011;63200;48.810;12.352;2023-04-03T07:44:51;2.47;;;2.25;;
74674;SDS011;63200;48.810;12.352;2023-04-03T07:47:16;3.65;;;2.75;;
74674;SDS011;63200;48.810;12.352;2023-04-03T07:49:43;5.72;;;3.20;;
74674;SDS011;63200;48.810;12.352;2023-04-03T07:52:08;5.35;;;3.30;;
74674;SDS011;63200;48.810;12.352;2023-04-03T07:54:34;4.07;;;2.72;;
74674;SDS011;63200;48.810;12.352;2023-04-03T07:57:00;5.28;;;3.20;;
74674;SDS011;63200;48.810;12.352;2023-04-03T07:59:26;8.57;;;2.88;;
74674;SDS011;63200;48.810;12.352;2023-04-03T08:01:51;6.25;;;3.15;;
74674;SDS011;63200;48.810;12.352;2023-04-03T08:04:16;11.98;;;3.35;;
74674;SDS011;63200;48.810;12.352;2023-04-03T08:06:42;4.28;;;3.20;;
74674;SDS011;63200;48.810;12.352;2023-04-03T08:09:07;7.45;;;3.00;;
74674;SDS011;63200;48.810;12.352;2023-04-03T08:11:33;14.68;;;4.72;;
74674;SDS011;63200;48.810;12.352;2023-04-03T08:13:58;5.38;;;2.97;;
74674;SDS011;63200;48.810;12.352;2023-04-03T08:16:24;8.82;;;3.22;;
74674;SDS011;63200;48.810;12.352;2023-04-03T08:18:52;3.83;;;3.33;;
74674;SDS011;63200;48.810;12.352;2023-04-03T08:21:19;6.63;;;3.53;;
74674;SDS011;63200;48.810;12.352;2023-04-03T08:23:44;5.72;;;2.83;;
74674;SDS011;63200;48.810;12.352;2023-04-03T08:26:13;3.10;;;2.65;;
74674;SDS011;63200;48.810;12.352;2023-04-03T08:28:41;3.03;;;2.63;;
74674;SDS011;63200;48.810;12.352;2023-04-03T08:31:07;6.60;;;2.90;;
74674;SDS011;63200;48.810;12.352;2023-04-03T08:33:36;5.07;;;2.25;;
74674;SDS011;63200;48.810;12.352;2023-04-03T08:36:06;2.85;;;2.15;;
74674;SDS011;63200;48.810;12.352;2023-04-03T08:38:33;5.15;;;2.03;;
74674;SDS011;63200;48.810;12.352;2023-04-03T08:43:38;5.50;;;2.88;;
74674;SDS011;63200;48.810;12.352;2023-04-03T08:46:06;5.47;;;2.88;;
74674;SDS011;63200;48.810;12.352;2023-04-03T08:48:42;12.75;;;3.47;;
74674;SDS011;63200;48.810;12.352;2023-04-03T08:51:13;28.73;;;3.65;;
74674;SDS011;63200;48.810;12.352;2023-04-03T08:53:41;6.72;;;2.30;;
74674;SDS011;63200;48.810;12.352;2023-04-03T08:56:14;2.50;;;1.80;;
74674;SDS011;63200;48.810;12.352;2023-04-03T08:58:47;4.15;;;3.45;;
74674;SDS011;63200;48.810;12.352;2023-04-03T09:01:32;8.80;;;2.60;;
74674;SDS011;63200;48.810;12.352;2023-04-03T09:04:00;3.78;;;2.30;;
74674;SDS011;63200;48.810;12.352;2023-04-03T09:06:27;3.08;;;1.63;;
74674;SDS011;63200;48.810;12.352;2023-04-03T09:09:10;3.20;;;2.13;;
74674;SDS011;63200;48.810;12.352;2023-04-03T09:11:54;5.10;;;2.25;;
74674;SDS011;63200;48.810;12.352;2023-04-03T09:14:43;5.15;;;3.78;;
74674;SDS011;63200;48.810;12.352;2023-04-03T09:17:15;7.13;;;3.45;;
74674;SDS011;63200;48.810;12.352;2023-04-03T09:19:57;3.92;;;2.70;;
74674;SDS011;63200;48.810;12.352;2023-04-03T09:22:34;3.30;;;2.30;;
74674;SDS011;63200;48.810;12.352;2023-04-03T09:25:13;1.67;;;1.58;;
74674;SDS011;63200;48.810;12.352;2023-04-03T09:27:45;1.98;;;1.73;;
74674;SDS011;63200;48.810;12.352;2023-04-03T09:30:14;3.88;;;2.45;;
74674;SDS011;63200;48.810;12.352;2023-04-03T09:32:41;4.75;;;2.88;;
74674;SDS011;63200;48.810;12.352;2023-04-03T09:37:50;2.58;;;2.28;;
74674;SDS011;63200;48.810;12.352;2023-04-03T09:43:18;2.70;;;1.92;;
74674;SDS011;63200;48.810;12.352;2023-04-03T09:45:51;4.82;;;1.85;;
74674;SDS011;63200;48.810;12.352;2023-04-03T09:48:18;3.10;;;1.80;;
74674;SDS011;63200;48.810;12.352;2023-04-03T09:50:59;1.67;;;1.52;;
74674;SDS011;63200;48.810;12.352;2023-04-03T09:56:04;1.63;;;1.50;;
74674;SDS011;63200;48.810;12.352;2023-04-03T09:58:48;3.40;;;1.95;;
74674;SDS011;63200;48.810;12.352;2023-04-03T10:01:37;2.45;;;1.40;;
74674;SDS011;63200;48.810;12.352;2023-04-03T10:04:06;2.58;;;1.88;;
74674;SDS011;63200;48.810;12.352;2023-04-03T10:06:40;2.95;;;1.52;;
74674;SDS011;63200;48.810;12.352;2023-04-03T10:12:27;4.22;;;1.80;;
74674;SDS011;63200;48.810;12.352;2023-04-03T10:14:40;2.15;;;1.50;;
74674;SDS011;63200;48.810;12.352;2023-04-03T10:28:20;2.53;;;1.40;;
74674;SDS011;63200;48.810;12.352;2023-04-03T10:31:01;3.47;;;1.50;;
74674;SDS011;63200;48.810;12.352;2023-04-03T10:33:36;1.42;;;1.33;;
74674;SDS011;63200;48.810;12.352;2023-04-03T10:41:52;2.90;;;1.70;;
74674;SDS011;63200;48.810;12.352;2023-04-03T10:49:50;4.50;;;1.33;;
74674;SDS011;63200;48.810;12.352;2023-04-03T10:57:38;3.50;;;1.10;;
74674;SDS011;63200;48.810;12.352;2023-04-03T11:00:19;2.15;;;1.40;;
74674;SDS011;63200;48.810;12.352;2023-04-03T11:02:57;2.78;;;1.60;;
74674;SDS011;63200;48.810;12.352;2023-04-03T11:05:31;3.22;;;1.58;;
74674;SDS011;63200;48.810;12.352;2023-04-03T11:08:10;1.15;;;1.15;;
74674;SDS011;63200;48.810;12.352;2023-04-03T11:10:44;1.52;;;1.35;;
74674;SDS011;63200;48.810;12.352;2023-04-03T11:13:15;2.97;;;1.48;;
74674;SDS011;63200;48.810;12.352;2023-04-03T11:15:45;3.05;;;1.25;;
74674;SDS011;63200;48.810;12.352;2023-04-03T11:18:19;8.90;;;1.85;;
74674;SDS011;63200;48.810;12.352;2023-04-03T11:23:36;1.30;;;1.20;;
74674;SDS011;63200;48.810;12.352;2023-04-03T11:26:07;1.35;;;1.25;;
74674;SDS011;63200;48.810;12.352;2023-04-03T11:28:35;1.88;;;1.77;;
74674;SDS011;63200;48.810;12.352;2023-04-03T11:36:40;2.88;;;1.50;;
74674;SDS011;63200;48.810;12.352;2023-04-03T11:39:30;3.00;;;2.17;;
74674;SDS011;63200;48.810;12.352;2023-04-03T11:42:12;5.55;;;2.42;;
74674;SDS011;63200;48.810;12.352;2023-04-03T11:47:56;3.50;;;1.65;;
74674;SDS011;63200;48.810;12.352;2023-04-03T12:05:55;4.28;;;2.22;;
74674;SDS011;63200;48.810;12.352;2023-04-03T12:13:36;2.00;;;1.42;;
74674;SDS011;63200;48.810;12.352;2023-04-03T12:16:04;2.95;;;1.38;;
74674;SDS011;63200;48.810;12.352;2023-04-03T12:21:15;1.50;;;1.40;;
74674;SDS011;63200;48.810;12.352;2023-04-03T12:26:31;3.35;;;1.77;;
74674;SDS011;63200;48.810;12.352;2023-04-03T12:28:57;1.98;;;1.88;;
74674;SDS011;63200;48.810;12.352;2023-04-03T12:31:24;2.53;;;2.20;;
74674;SDS011;63200;48.810;12.352;2023-04-03T12:34:15;3.92;;;2.58;;
74674;SDS011;63200;48.810;12.352;2023-04-03T12:45:43;4.05;;;2.80;;
74674;SDS011;63200;48.810;12.352;2023-04-03T12:48:17;4.68;;;2.45;;
74674;SDS011;63200;48.810;12.352;2023-04-03T12:50:47;9.02;;;3.42;;
74674;SDS011;63200;48.810;12.352;2023-04-03T12:53:27;9.60;;;3.90;;
74674;SDS011;63200;48.810;12.352;2023-04-03T12:56:18;4.82;;;2.75;;
74674;SDS011;63200;48.810;12.352;2023-04-03T12:58:45;1.60;;;1.50;;
74674;SDS011;63200;48.810;12.352;2023-04-03T13:01:12;1.75;;;1.65;;
74674;SDS011;63200;48.810;12.352;2023-04-03T13:03:40;2.80;;;1.65;;
74674;SDS011;63200;48.810;12.352;2023-04-03T13:06:23;4.95;;;2.85;;
74674;SDS011;63200;48.810;12.352;2023-04-03T13:08:52;8.27;;;4.07;;
74674;SDS011;63200;48.810;12.352;2023-04-03T13:11:22;3.97;;;3.17;;
74674;SDS011;63200;48.810;12.352;2023-04-03T13:13:58;3.13;;;2.70;;
74674;SDS011;63200;48.810;12.352;2023-04-03T13:16:24;2.05;;;1.60;;
74674;SDS011;63200;48.810;12.352;2023-04-03T13:18:51;2.53;;;2.08;;
74674;SDS011;63200;48.810;12.352;2023-04-03T13:21:19;2.25;;;2.00;;
74674;SDS011;63200;48.810;12.352;2023-04-03T13:23:49;5.07;;;2.20;;
74674;SDS011;63200;48.810;12.352;2023-04-03T13:26:17;2.53;;;2.03;;
74674;SDS011;63200;48.810;12.352;2023-04-03T13:28:45;4.70;;;2.10;;
74674;SDS011;63200;48.810;12.352;2023-04-03T13:31:25;2.42;;;2.17;;
74674;SDS011;63200;48.810;12.352;2023-04-03T13:36:21;4.55;;;1.98;;
74674;SDS011;63200;48.810;12.352;2023-04-03T13:44:45;3.10;;;1.92;;
74674;SDS011;63200;48.810;12.352;2023-04-03T13:47:22;2.20;;;2.00;;
74674;SDS011;63200;48.810;12.352;2023-04-03T13:50:03;1.73;;;1.63;;
74674;SDS011;63200;48.810;12.352;2023-04-03T13:52:39;3.75;;;2.70;;
74674;SDS011;63200;48.810;12.352;2023-04-03T13:57:48;2.75;;;1.58;;
74674;SDS011;63200;48.810;12.352;2023-04-03T14:02:59;7.00;;;2.50;;
74674;SDS011;63200;48.810;12.352;2023-04-03T14:05:24;3.30;;;2.00;;
74674;SDS011;63200;48.810;12.352;2023-04-03T14:07:51;2.47;;;1.98;;
74674;SDS011;63200;48.810;12.352;2023-04-03T14:10:20;1.92;;;1.75;;
74674;SDS011;63200;48.810;12.352;2023-04-03T14:12:46;5.28;;;2.40;;
74674;SDS011;63200;48.810;12.352;2023-04-03T14:15:17;1.98;;;1.88;;
74674;SDS011;63200;48.810;12.352;2023-04-03T14:17:45;4.03;;;2.65;;
74674;SDS011;63200;48.810;12.352;2023-04-03T14:20:14;51.10;;;5.30;;
74674;SDS011;63200;48.810;12.352;2023-04-03T14:22:43;5.82;;;2.30;;
74674;SDS011;63200;48.810;12.352;2023-04-03T14:25:09;1.88;;;1.67;;
74674;SDS011;63200;48.810;12.352;2023-04-03T14:27:36;9.27;;;2.17;;
74674;SDS011;63200;48.810;12.352;2023-04-03T14:30:06;2.45;;;2.35;;
74674;SDS011;63200;48.810;12.352;2023-04-03T14:32:33;1.77;;;1.67;;
74674;SDS011;63200;48.810;12.352;2023-04-03T14:34:59;2.03;;;1.85;;
74674;SDS011;63200;48.810;12.352;2023-04-03T14:37:26;3.30;;;2.10;;
74674;SDS011;63200;48.810;12.352;2023-04-03T14:39:55;2.95;;;1.98;;
74674;SDS011;63200;48.810;12.352;2023-04-03T14:42:26;2.47;;;1.80;;
74674;SDS011;63200;48.810;12.352;2023-04-03T14:44:54;9.85;;;5.30;;
74674;SDS011;63200;48.810;12.352;2023-04-03T14:47:21;6.40;;;2.20;;
74674;SDS011;63200;48.810;12.352;2023-04-03T14:49:49;3.25;;;2.22;;
74674;SDS011;63200;48.810;12.352;2023-04-03T14:52:19;3.50;;;2.45;;
74674;SDS011;63200;48.810;12.352;2023-04-03T14:54:49;2.72;;;2.20;;
74674;SDS011;63200;48.810;12.352;2023-04-03T14:57:15;2.10;;;1.90;;
74674;SDS011;63200;48.810;12.352;2023-04-03T14:59:42;1.60;;;1.50;;
74674;SDS011;63200;48.810;12.352;2023-04-03T15:04:58;5.88;;;3.42;;
74674;SDS011;63200;48.810;12.352;2023-04-03T15:07:25;4.80;;;3.42;;
74674;SDS011;63200;48.810;12.352;2023-04-03T15:09:53;3.17;;;2.15;;
74674;SDS011;63200;48.810;12.352;2023-04-03T15:12:21;9.57;;;5.00;;
74674;SDS011;63200;48.810;12.352;2023-04-03T15:14:46;7.57;;;3.83;;
74674;SDS011;63200;48.810;12.352;2023-04-03T15:17:14;5.50;;;2.17;;
74674;SDS011;63200;48.810;12.352;2023-04-03T15:19:42;1.70;;;1.60;;
74674;SDS011;63200;48.810;12.352;2023-04-03T15:22:09;14.73;;;7.20;;
74674;SDS011;63200;48.810;12.352;2023-04-03T15:24:38;4.65;;;2.72;;
74674;SDS011;63200;48.810;12.352;2023-04-03T15:27:04;7.25;;;3.45;;
74674;SDS011;63200;48.810;12.352;2023-04-03T15:29:29;5.00;;;2.80;;
74674;SDS011;63200;48.810;12.352;2023-04-03T15:31:54;1.83;;;1.73;;
74674;SDS011;63200;48.810;12.352;2023-04-03T15:34:20;2.78;;;1.50;;
74674;SDS011;63200;48.810;12.352;2023-04-03T15:36:46;3.28;;;1.90;;
74674;SDS011;63200;48.810;12.352;2023-04-03T15:39:11;2.13;;;1.70;;
74674;SDS011;63200;48.810;12.352;2023-04-03T15:41:37;1.58;;;1.40;;
74674;SDS011;63200;48.810;12.352;2023-04-03T15:44:02;13.13;;;8.65;;
74674;SDS011;63200;48.810;12.352;2023-04-03T15:46:27;3.80;;;1.50;;
74674;SDS011;63200;48.810;12.352;2023-04-03T15:48:52;2.10;;;1.45;;
74674;SDS011;63200;48.810;12.352;2023-04-03T15:51:18;3.72;;;1.60;;
74674;SDS011;63200;48.810;12.352;2023-04-03T15:53:43;2.25;;;1.70;;
74674;SDS011;63200;48.810;12.352;2023-04-03T15:56:08;1.48;;;1.40;;
74674;SDS011;63200;48.810;12.352;2023-04-03T15:58:34;1.95;;;1.85;;
74674;SDS011;63200;48.810;12.352;2023-04-03T16:01:00;2.15;;;1.90;;
74674;SDS011;63200;48.810;12.352;2023-04-03T16:03:25;2.10;;;1.92;;
74674;SDS011;63200;48.810;12.352;2023-04-03T16:05:51;2.20;;;1.70;;
74674;SDS011;63200;48.810;12.352;2023-04-03T16:08:17;1.60;;;1.50;;
74674;SDS011;63200;48.810;12.352;2023-04-03T16:10:43;5.13;;;2.00;;
74674;SDS011;63200;48.810;12.352;2023-04-03T16:13:10;2.97;;;1.63;;
74674;SDS011;63200;48.810;12.352;2023-04-03T16:15:35;2.00;;;1.85;;
74674;SDS011;63200;48.810;12.352;2023-04-03T16:18:01;12.60;;;3.30;;
74674;SDS011;63200;48.810;12.352;2023-04-03T16:20:27;2.00;;;1.83;;
74674;SDS011;63200;48.810;12.352;2023-04-03T16:22:53;2.15;;;1.50;;
74674;SDS011;63200;48.810;12.352;2023-04-03T16:25:19;5.03;;;2.25;;
74674;SDS011;63200;48.810;12.352;2023-04-03T16:27:45;2.22;;;2.13;;